createdAt,value
2015-11-20T00:00:13.353Z,7.9
2015-11-20T00:01:13.293Z,7.9
2015-11-20T00:02:13.249Z,8
2015-11-20T00:03:13.189Z,8
2015-11-20T00:04:13.130Z,7.9
2015-11-20T00:05:13.086Z,8
2015-11-20T00:06:13.026Z,7.9
2015-11-20T00:07:12.967Z,8
2015-11-20T00:08:12.906Z,8
2015-11-20T00:09:12.847Z,8
2015-11-20T00:10:12.803Z,8
2015-11-20T00:11:12.742Z,8
2015-11-20T00:12:12.684Z,8
2015-11-20T00:13:12.639Z,8
2015-11-20T00:14:12.561Z,8
2015-11-20T00:15:12.517Z,7.9
2015-11-20T00:16:12.457Z,7.8
2015-11-20T00:17:12.397Z,7.9
2015-11-20T00:18:12.353Z,7.9
2015-11-20T00:19:12.293Z,8
2015-11-20T00:20:12.233Z,7.9
2015-11-20T00:21:12.174Z,7.9
2015-11-20T00:22:12.114Z,7.8
2015-11-20T00:23:12.101Z,7.8
2015-11-20T00:24:12.011Z,7.8
2015-11-20T00:25:11.960Z,7.8
2015-11-20T00:26:11.900Z,7.8
2015-11-20T00:27:11.841Z,7.8
2015-11-20T00:28:11.781Z,7.9
2015-11-20T00:29:11.737Z,7.9
2015-11-20T00:30:11.677Z,7.9
2015-11-20T00:31:11.618Z,7.9
2015-11-20T00:32:11.574Z,7.9
2015-11-20T00:33:11.513Z,7.9
2015-11-20T00:34:11.454Z,7.8
2015-11-20T00:35:11.410Z,7.8
2015-11-20T00:36:11.350Z,7.8
2015-11-20T00:37:11.305Z,7.8
2015-11-20T00:38:11.246Z,7.8
2015-11-20T00:39:11.185Z,7.8
2015-11-20T00:40:11.127Z,7.8
2015-11-20T00:41:11.067Z,7.9
2015-11-20T00:42:11.007Z,7.9
2015-11-20T00:43:10.946Z,7.8
2015-11-20T00:44:10.904Z,7.9
2015-11-20T00:45:10.844Z,7.8
2015-11-20T00:46:10.799Z,7.9
2015-11-20T00:47:10.739Z,7.9
2015-11-20T00:48:10.680Z,7.8
2015-11-20T00:49:10.668Z,7.8
2015-11-20T00:50:10.560Z,7.9
2015-11-20T00:51:10.515Z,7.9
2015-11-20T00:52:10.456Z,7.9
2015-11-20T00:53:10.397Z,7.8
2015-11-20T00:54:10.352Z,7.9
2015-11-20T00:55:10.293Z,7.9
2015-11-20T00:56:10.230Z,8
2015-11-20T00:57:10.187Z,8
2015-11-20T00:58:10.127Z,7.9
2015-11-20T00:59:10.067Z,7.9
2015-11-20T01:00:10.006Z,7.9
2015-11-20T01:01:09.947Z,7.9
2015-11-20T01:02:09.918Z,7.9
2015-11-20T01:03:09.843Z,8
2015-11-20T01:04:09.783Z,7.9
2015-11-20T01:05:09.739Z,7.9
2015-11-20T01:06:09.679Z,7.9
2015-11-20T01:07:09.620Z,7.9
2015-11-20T01:08:09.575Z,8
2015-11-20T01:09:09.515Z,7.9
2015-11-20T01:10:09.456Z,7.9
2015-11-20T01:11:09.396Z,8
2015-11-20T01:12:09.353Z,8
2015-11-20T01:13:09.293Z,8
2015-11-20T01:14:09.233Z,8
2015-11-20T01:15:09.173Z,8
2015-11-20T01:16:09.114Z,8
2015-11-20T01:17:09.101Z,8
2015-11-20T01:18:09.025Z,7.9
2015-11-20T01:19:08.965Z,7.9
2015-11-20T01:20:08.906Z,7.9
2015-11-20T01:21:08.845Z,8
2015-11-20T01:22:08.786Z,8
2015-11-20T01:23:08.727Z,8
2015-11-20T01:24:08.682Z,8
2015-11-20T01:25:08.622Z,7.9
2015-11-20T01:26:08.563Z,7.9
2015-11-20T01:27:08.503Z,8
2015-11-20T01:28:08.459Z,7.9
2015-11-20T01:29:08.400Z,7.8
2015-11-20T01:30:08.340Z,7.9
2015-11-20T01:31:08.280Z,7.9
2015-11-20T01:32:08.236Z,7.8
2015-11-20T01:33:08.176Z,7.8
2015-11-20T01:34:08.132Z,7.8
2015-11-20T01:35:08.101Z,7.9
2015-11-20T01:36:08.009Z,7.9
2015-11-20T01:37:07.950Z,7.9
2015-11-20T01:38:07.905Z,7.8
2015-11-20T01:39:07.861Z,7.8
2015-11-20T01:40:07.786Z,7.8
2015-11-20T01:41:07.742Z,7.8
2015-11-20T01:42:07.683Z,7.9
2015-11-20T01:43:07.622Z,7.9
2015-11-20T01:44:07.563Z,7.9
2015-11-20T01:45:07.519Z,7.9
2015-11-20T01:46:07.458Z,7.8
2015-11-20T01:47:07.399Z,7.8
2015-11-20T01:48:07.339Z,7.8
2015-11-20T01:49:07.295Z,7.7
2015-11-20T01:50:07.236Z,7.8
2015-11-20T01:51:07.176Z,7.8
2015-11-20T01:52:07.116Z,7.8
2015-11-20T01:53:07.056Z,7.9
2015-11-20T01:54:07.011Z,7.8
2015-11-20T01:55:06.953Z,7.9
2015-11-20T01:56:06.908Z,7.9
2015-11-20T01:57:06.849Z,7.8
2015-11-20T01:58:06.789Z,7.8
2015-11-20T01:59:06.730Z,7.9
2015-11-20T02:00:06.685Z,7.9
2015-11-20T02:01:06.625Z,7.9
2015-11-20T02:02:06.581Z,7.9
2015-11-20T02:03:06.553Z,8
2015-11-20T02:04:06.462Z,7.9
2015-11-20T02:05:06.402Z,7.9
2015-11-20T02:06:06.358Z,7.9
2015-11-20T02:07:06.298Z,7.9
2015-11-20T02:08:06.239Z,8
2015-11-20T02:09:06.178Z,8.1
2015-11-20T02:10:06.119Z,8
2015-11-20T02:11:06.074Z,8
2015-11-20T02:12:06.016Z,8
2015-11-20T02:13:05.955Z,8.1
2015-11-20T02:14:05.893Z,8.1
2015-11-20T02:15:05.849Z,8
2015-11-20T02:16:05.789Z,8.1
2015-11-20T02:17:05.729Z,8
2015-11-20T02:18:05.685Z,8
2015-11-20T02:19:05.624Z,7.9
2015-11-20T02:20:05.566Z,7.9
2015-11-20T02:21:05.521Z,8
2015-11-20T02:22:05.461Z,8
2015-11-20T02:23:05.401Z,7.8
2015-11-20T02:24:05.341Z,7.8
2015-11-20T02:25:05.282Z,7.9
2015-11-20T02:26:05.254Z,7.9
2015-11-20T02:27:05.178Z,7.9
2015-11-20T02:28:05.119Z,7.8
2015-11-20T02:29:05.060Z,7.8
2015-11-20T02:30:05.015Z,7.9
2015-11-20T02:31:04.955Z,7.9
2015-11-20T02:32:04.895Z,7.9
2015-11-20T02:33:04.852Z,7.8
2015-11-20T02:34:04.824Z,7.9
2015-11-20T02:35:04.732Z,7.9
2015-11-20T02:36:04.688Z,8
2015-11-20T02:37:04.628Z,7.9
2015-11-20T02:38:04.569Z,8
2015-11-20T02:41:41.811Z,8.1
2015-11-20T02:42:41.752Z,8
2015-11-20T02:43:41.708Z,8.1
2015-11-20T02:44:41.647Z,8.1
2015-11-20T02:45:41.588Z,8
2015-11-20T02:46:41.527Z,8
2015-11-20T02:47:41.468Z,8
2015-11-20T02:48:41.424Z,8
2015-11-20T02:49:41.364Z,8
2015-11-20T02:50:41.305Z,8.1
2015-11-20T02:51:41.246Z,8.1
2015-11-20T02:52:41.201Z,8.2
2015-11-20T02:53:41.141Z,8.2
2015-11-20T02:54:41.082Z,8.1
2015-11-20T02:55:41.038Z,8.2
2015-11-20T02:56:40.977Z,8.2
2015-11-20T02:57:40.918Z,8.3
2015-11-20T02:58:40.857Z,8.2
2015-11-20T02:59:40.829Z,8.2
2015-11-20T03:00:40.754Z,8.2
2015-11-20T03:01:40.694Z,8.2
2015-11-20T03:02:40.650Z,8.2
2015-11-20T03:03:40.590Z,8.2
2015-11-20T03:04:40.581Z,8.1
2015-11-20T03:05:40.483Z,8.2
2015-11-20T03:06:40.501Z,8.2
2015-11-20T03:07:40.378Z,8.2
2015-11-20T03:08:40.303Z,8.3
2015-11-20T03:09:40.259Z,8.3
2015-11-20T03:10:40.200Z,8.3
2015-11-20T03:11:40.140Z,8.2
2015-11-20T03:12:40.080Z,8.2
2015-11-20T03:13:40.036Z,8.2
2015-11-20T03:14:39.976Z,8.2
2015-11-20T03:15:39.913Z,8.1
2015-11-20T03:16:39.869Z,8.2
2015-11-20T03:17:39.857Z,8.2
2015-11-20T03:18:39.755Z,8.2
2015-11-20T03:19:39.695Z,8.2
2015-11-20T03:20:39.635Z,8.2
2015-11-20T03:21:39.591Z,8.2
2015-11-20T03:22:39.532Z,8.3
2015-11-20T03:23:39.472Z,8.2
2015-11-20T03:24:39.428Z,8.3
2015-11-20T03:25:39.368Z,8.2
2015-11-20T03:26:39.308Z,8.1
2015-11-20T03:27:39.264Z,8.2
2015-11-20T03:28:39.221Z,8.1
2015-11-20T03:29:39.160Z,8.1
2015-11-20T03:30:39.101Z,8.1
2015-11-20T03:31:39.041Z,8.1
2015-11-20T03:32:38.982Z,8.2
2015-11-20T03:33:38.921Z,8.2
2015-11-20T03:34:38.877Z,8.2
2015-11-20T03:35:38.818Z,8.2
2015-11-20T03:36:38.805Z,8.2
2015-11-20T03:37:38.713Z,8.1
2015-11-20T03:38:38.654Z,8.1
2015-11-20T03:39:38.594Z,8.1
2015-11-20T03:40:38.535Z,8.1
2015-11-20T03:41:38.490Z,8
2015-11-20T03:42:38.430Z,8
2015-11-20T03:43:38.371Z,8
2015-11-20T03:44:38.310Z,8
2015-11-20T03:45:38.251Z,8
2015-11-20T03:46:38.223Z,8.1
2015-11-20T03:47:38.163Z,8.1
2015-11-20T03:48:38.119Z,8
2015-11-20T03:49:38.044Z,8.1
2015-11-20T03:50:37.984Z,8.1
2015-11-20T03:51:37.924Z,8.2
2015-11-20T03:52:37.880Z,8.1
2015-11-20T03:53:37.820Z,8.1
2015-11-20T03:54:37.757Z,8.1
2015-11-20T03:55:37.713Z,8.1
2015-11-20T03:56:37.654Z,8.1
2015-11-20T03:57:37.593Z,8.2
2015-11-20T03:58:37.550Z,8.1
2015-11-20T03:59:37.490Z,8.1
2015-11-20T04:00:37.431Z,8.1
2015-11-20T04:01:37.371Z,8.1
2015-11-20T04:02:37.327Z,8.1
2015-11-20T04:03:37.267Z,8.1
2015-11-20T04:04:37.207Z,8
2015-11-20T04:05:37.163Z,8.1
2015-11-20T04:06:37.104Z,8.1
2015-11-20T04:07:37.043Z,8.1
2015-11-20T04:08:36.984Z,8.1
2015-11-20T04:09:36.956Z,8.2
2015-11-20T04:10:36.879Z,8.1
2015-11-20T04:11:36.820Z,8.1
2015-11-20T04:12:36.775Z,8.1
2015-11-20T04:13:36.717Z,8.2
2015-11-20T04:14:36.656Z,8.2
2015-11-20T04:15:36.597Z,8.2
2015-11-20T04:16:36.553Z,8.2
2015-11-20T04:17:36.493Z,8.3
2015-11-20T04:18:36.527Z,8.3
2015-11-20T04:19:36.389Z,8.3
2015-11-20T04:20:36.329Z,8.3
2015-11-20T04:21:36.270Z,8.2
2015-11-20T04:22:36.272Z,8.2
2015-11-20T04:23:36.164Z,8.1
2015-11-20T04:24:36.106Z,8.2
2015-11-20T04:25:36.045Z,8.3
2015-11-20T04:26:36.002Z,8.2
2015-11-20T04:27:35.942Z,8.2
2015-11-20T04:28:35.883Z,8.3
2015-11-20T04:29:35.838Z,8.3
2015-11-20T04:30:35.778Z,8.3
2015-11-20T04:31:35.719Z,8.3
2015-11-20T04:32:35.674Z,8.3
2015-11-20T04:33:35.614Z,8.3
2015-11-20T04:34:35.570Z,8.3
2015-11-20T04:35:35.511Z,8.3
2015-11-20T04:36:35.450Z,8.2
2015-11-20T04:37:35.391Z,8.2
2015-11-20T04:38:35.347Z,8.2
2015-11-20T04:39:35.288Z,8.1
2015-11-20T04:40:35.228Z,8.2
2015-11-20T04:41:35.183Z,8.2
2015-11-20T04:42:35.120Z,8.2
2015-11-20T04:43:35.047Z,8.3
2015-11-20T04:44:34.989Z,8.3
2015-11-20T04:45:34.927Z,8.3
2015-11-20T04:46:34.854Z,8.2
2015-11-20T04:47:34.797Z,8.2
2015-11-20T04:48:34.728Z,8.2
2015-11-20T04:49:34.680Z,8.2
2015-11-20T04:50:34.599Z,8.2
2015-11-20T04:51:34.550Z,8.2
2015-11-20T04:52:34.486Z,8.2
2015-11-20T04:53:34.439Z,8.2
2015-11-20T04:54:34.377Z,8.2
2015-11-20T04:55:34.316Z,8.2
2015-11-20T04:56:34.254Z,8.2
2015-11-20T04:57:34.209Z,8.1
2015-11-20T04:58:34.196Z,8.2
2015-11-20T04:59:34.087Z,8.2
2015-11-20T05:00:34.042Z,8.1
2015-11-20T05:01:33.983Z,8.2
2015-11-20T05:02:33.938Z,8.2
2015-11-20T05:03:33.877Z,8.2
2015-11-20T05:04:33.817Z,8.3
2015-11-20T05:05:33.759Z,8.3
2015-11-20T05:06:33.714Z,8.2
2015-11-20T05:07:33.669Z,8.2
2015-11-20T05:08:33.594Z,8.1
2015-11-20T05:09:33.550Z,8.2
2015-11-20T05:10:33.490Z,8.2
2015-11-20T05:11:33.430Z,8.2
2015-11-20T05:12:33.370Z,8.1
2015-11-20T05:13:33.326Z,8.1
2015-11-20T05:14:33.267Z,8.2
2015-11-20T05:15:33.222Z,8.2
2015-11-20T05:16:33.179Z,8.2
2015-11-20T05:17:33.103Z,8.2
2015-11-20T05:18:33.043Z,8.2
2015-11-20T05:19:32.999Z,8.2
2015-11-20T05:20:32.939Z,8.2
2015-11-20T05:21:32.895Z,8.2
2015-11-20T05:22:32.836Z,8.2
2015-11-20T05:23:32.807Z,8.1
2015-11-20T05:24:32.731Z,8.1
2015-11-20T05:25:32.672Z,8.2
2015-11-20T05:26:32.612Z,8.2
2015-11-20T05:27:32.568Z,8.2
2015-11-20T05:28:32.508Z,8.2
2015-11-20T05:29:32.464Z,8.1
2015-11-20T05:30:32.404Z,8.1
2015-11-20T05:31:32.391Z,8.2
2015-11-20T05:32:32.285Z,8.1
2015-11-20T05:33:32.240Z,8.2
2015-11-20T05:34:32.180Z,8.2
2015-11-20T05:35:32.136Z,8.1
2015-11-20T05:36:32.077Z,8.1
2015-11-20T05:37:32.017Z,8.1
2015-11-20T05:38:31.957Z,8.1
2015-11-20T05:39:31.913Z,8
2015-11-20T05:40:31.854Z,8
2015-11-20T05:41:31.793Z,8
2015-11-20T05:42:31.749Z,8.1
2015-11-20T05:43:31.690Z,8.1
2015-11-20T05:44:31.674Z,8.1
2015-11-20T05:45:31.582Z,8.1
2015-11-20T05:46:31.523Z,8.2
2015-11-20T05:47:31.479Z,8.2
2015-11-20T05:48:31.419Z,8.2
2015-11-20T05:49:31.359Z,8.1
2015-11-20T05:50:31.300Z,8.1
2015-11-20T05:51:31.256Z,8.2
2015-11-20T05:52:31.196Z,8.1
2015-11-20T05:53:31.136Z,8.1
2015-11-20T05:54:31.092Z,8.2
2015-11-20T05:55:31.031Z,8.1
2015-11-20T05:56:30.973Z,8.1
2015-11-20T05:57:30.913Z,8.1
2015-11-20T05:58:30.868Z,8.1
2015-11-20T05:59:30.812Z,8
2015-11-20T06:00:30.752Z,8
2015-11-20T06:01:30.692Z,8.1
2015-11-20T06:02:30.648Z,8.1
2015-11-20T06:03:30.587Z,8.1
2015-11-20T06:04:30.543Z,8
2015-11-20T06:05:30.484Z,8
2015-11-20T06:06:30.424Z,7.9
2015-11-20T06:07:30.365Z,8
2015-11-20T06:08:30.320Z,8
2015-11-20T06:09:30.261Z,7.9
2015-11-20T06:10:30.201Z,8
2015-11-20T06:11:30.156Z,7.9
2015-11-20T06:12:30.097Z,7.8
2015-11-20T06:13:30.037Z,7.8
2015-11-20T06:14:29.993Z,7.8
2015-11-20T06:15:29.934Z,7.8
2015-11-20T06:16:29.874Z,7.8
2015-11-20T06:17:29.829Z,7.7
2015-11-20T06:18:29.769Z,7.6
2015-11-20T06:19:29.741Z,7.7
2015-11-20T06:20:29.666Z,7.6
2015-11-20T06:21:29.605Z,7.6
2015-11-20T06:22:29.578Z,7.5
2015-11-20T06:23:29.502Z,7.6
2015-11-20T06:24:29.442Z,7.6
2015-11-20T06:25:29.383Z,7.6
2015-11-20T06:26:29.338Z,7.6
2015-11-20T06:27:29.278Z,7.6
2015-11-20T06:28:29.219Z,7.5
2015-11-20T06:29:29.158Z,7.5
2015-11-20T06:30:29.115Z,7.5
2015-11-20T06:31:29.055Z,7.5
2015-11-20T06:32:28.995Z,7.5
2015-11-20T06:33:28.952Z,7.5
2015-11-20T06:34:28.891Z,7.5
2015-11-20T06:35:28.832Z,7.4
2015-11-20T06:36:28.788Z,7.4
2015-11-20T06:37:28.727Z,7.4
2015-11-20T06:38:28.668Z,7.4
2015-11-20T06:39:28.624Z,7.4
2015-11-20T06:40:28.564Z,7.4
2015-11-20T06:41:28.505Z,7.3
2015-11-20T06:42:28.444Z,7.3
2015-11-20T06:43:28.400Z,7.4
2015-11-20T06:44:28.340Z,7.3
2015-11-20T06:45:28.296Z,7.3
2015-11-20T06:46:28.237Z,7.3
2015-11-20T06:47:28.177Z,7.2
2015-11-20T06:48:28.133Z,7.2
2015-11-20T06:49:28.057Z,7.3
2015-11-20T06:50:28.013Z,7.2
2015-11-20T06:51:27.954Z,7.2
2015-11-20T06:52:27.910Z,7.2
2015-11-20T06:53:27.849Z,7.3
2015-11-20T06:54:27.787Z,7.2
2015-11-20T06:55:27.742Z,7.2
2015-11-20T06:56:27.683Z,7.1
2015-11-20T06:57:27.623Z,7.2
2015-11-20T06:58:27.563Z,7.2
2015-11-20T06:59:27.504Z,7.2
2015-11-20T07:00:27.459Z,7.2
2015-11-20T07:01:27.400Z,7.2
2015-11-20T07:02:27.355Z,7.2
2015-11-20T07:03:27.295Z,7.2
2015-11-20T07:04:27.251Z,7.3
2015-11-20T07:05:27.176Z,7.4
2015-11-20T07:06:27.132Z,7.4
2015-11-20T07:07:27.087Z,7.4
2015-11-20T07:08:27.012Z,7.3
2015-11-20T07:09:26.952Z,7.3
2015-11-20T07:10:26.908Z,7.3
2015-11-20T07:11:26.848Z,7.4
2015-11-20T07:12:26.789Z,7.4
2015-11-20T07:13:26.745Z,7.4
2015-11-20T07:14:26.686Z,7.4
2015-11-20T07:15:26.625Z,7.4
2015-11-20T07:16:26.581Z,7.4
2015-11-20T07:17:26.522Z,7.3
2015-11-20T07:18:26.461Z,7.3
2015-11-20T07:19:26.417Z,7.2
2015-11-20T07:20:26.358Z,7.3
2015-11-20T07:21:26.313Z,7.3
2015-11-20T07:22:26.253Z,7.4
2015-11-20T07:23:26.194Z,7.4
2015-11-20T07:24:26.134Z,7.4
2015-11-20T07:25:26.074Z,7.4
2015-11-20T07:26:26.030Z,7.4
2015-11-20T07:27:25.971Z,7.5
2015-11-20T07:28:25.927Z,7.5
2015-11-20T07:29:25.867Z,7.6
2015-11-20T07:30:25.822Z,7.6
2015-11-20T07:31:25.747Z,7.7
2015-11-20T07:32:25.703Z,7.8
2015-11-20T07:33:25.644Z,8
2015-11-20T07:34:25.583Z,8
2015-11-20T07:35:25.523Z,7.9
2015-11-20T07:36:25.479Z,8
2015-11-20T07:37:25.419Z,8.3
2015-11-20T07:38:25.359Z,8.7
2015-11-20T07:39:25.316Z,8.8
2015-11-20T07:40:25.257Z,8.5
2015-11-20T07:41:25.196Z,8.3
2015-11-20T07:42:25.152Z,8.1
2015-11-20T07:43:25.093Z,8.1
2015-11-20T07:44:25.032Z,8.1
2015-11-20T07:45:24.973Z,8
2015-11-20T07:46:24.912Z,8
2015-11-20T07:47:24.868Z,8.1
2015-11-20T07:48:24.809Z,8.1
2015-11-20T07:49:24.749Z,8.1
2015-11-20T07:50:24.690Z,8
2015-11-20T07:51:24.645Z,7.9
2015-11-20T07:52:24.586Z,7.8
2015-11-20T07:53:24.526Z,7.7
2015-11-20T07:54:24.481Z,7.6
2015-11-20T07:55:24.422Z,7.7
2015-11-20T07:56:24.362Z,7.7
2015-11-20T07:57:24.318Z,7.7
2015-11-20T07:58:24.256Z,7.7
2015-11-20T07:59:24.196Z,7.6
2015-11-20T08:00:24.136Z,7.7
2015-11-20T08:01:24.092Z,7.7
2015-11-20T08:02:24.032Z,7.7
2015-11-20T08:03:23.972Z,7.7
2015-11-20T08:04:23.928Z,7.6
2015-11-20T08:05:23.867Z,7.7
2015-11-20T08:06:23.808Z,7.7
2015-11-20T08:07:23.748Z,7.7
2015-11-20T08:08:23.689Z,7.6
2015-11-20T08:09:23.645Z,7.7
2015-11-20T08:10:23.586Z,7.6
2015-11-20T08:11:23.525Z,7.7
2015-11-20T08:12:23.481Z,7.8
2015-11-20T08:13:23.422Z,7.9
2015-11-20T08:14:23.361Z,8
2015-11-20T08:15:23.333Z,8.1
2015-11-20T08:16:23.242Z,8.2
2015-11-20T08:17:23.197Z,8.3
2015-11-20T08:18:23.139Z,8.3
2015-11-20T08:19:23.094Z,8.1
2015-11-20T08:20:23.033Z,8.2
2015-11-20T08:21:22.975Z,8.1
2015-11-20T08:22:22.930Z,8
2015-11-20T08:23:22.871Z,8
2015-11-20T08:24:22.810Z,7.9
2015-11-20T08:25:22.752Z,7.8
2015-11-20T08:26:22.691Z,7.9
2015-11-20T08:27:22.647Z,7.9
2015-11-20T08:28:22.588Z,7.8
2015-11-20T08:29:22.544Z,7.7
2015-11-20T08:30:22.483Z,7.7
2015-11-20T08:31:22.424Z,7.7
2015-11-20T08:32:22.379Z,7.7
2015-11-20T08:33:22.319Z,7.8
2015-11-20T08:34:22.260Z,7.8
2015-11-20T08:35:22.200Z,7.8
2015-11-20T08:36:22.157Z,7.5
2015-11-20T08:37:22.096Z,7.5
2015-11-20T08:38:22.037Z,7.6
2015-11-20T08:39:21.976Z,7.6
2015-11-20T08:40:21.932Z,7.6
2015-11-20T08:41:21.873Z,7.6
2015-11-20T08:42:21.813Z,7.7
2015-11-20T08:43:21.754Z,7.6
2015-11-20T08:44:21.709Z,7.6
2015-11-20T08:45:21.649Z,7.6
2015-11-20T08:46:21.605Z,7.6
2015-11-20T08:47:21.546Z,7.6
2015-11-20T08:48:21.501Z,7.6
2015-11-20T08:49:21.442Z,7.7
2015-11-20T08:50:21.382Z,7.8
2015-11-20T08:51:21.322Z,7.8
2015-11-20T08:52:21.263Z,7.8
2015-11-20T08:53:21.218Z,7.7
2015-11-20T08:54:21.159Z,7.7
2015-11-20T08:55:21.098Z,7.7
2015-11-20T08:56:21.054Z,7.6
2015-11-20T08:57:20.995Z,7.7
2015-11-20T08:58:20.935Z,7.7
2015-11-20T08:59:20.891Z,7.7
2015-11-20T09:00:20.829Z,7.7
2015-11-20T09:01:20.784Z,7.7
2015-11-20T09:02:20.725Z,7.6
2015-11-20T09:03:20.665Z,7.6
2015-11-20T09:04:20.606Z,7.6
2015-11-20T09:05:20.576Z,7.7
2015-11-20T09:06:20.501Z,7.7
2015-11-20T09:07:20.441Z,7.7
2015-11-20T09:08:20.381Z,7.7
2015-11-20T09:09:20.336Z,7.6
2015-11-20T09:10:20.294Z,7.7
2015-11-20T09:11:20.219Z,7.7
2015-11-20T09:12:20.174Z,7.7
2015-11-20T09:13:20.115Z,7.7
2015-11-20T09:14:20.055Z,7.8
2015-11-20T09:15:19.995Z,7.8
2015-11-20T09:16:19.951Z,7.8
2015-11-20T09:17:19.892Z,7.8
2015-11-20T09:18:19.832Z,7.9
2015-11-20T09:19:19.772Z,7.9
2015-11-20T09:20:19.728Z,8
2015-11-20T09:21:19.667Z,8.1
2015-11-20T09:22:19.608Z,8.2
2015-11-20T09:23:19.548Z,8.3
2015-11-20T09:24:19.504Z,8.4
2015-11-20T09:25:19.459Z,8.6
2015-11-20T09:26:19.400Z,8.7
2015-11-20T09:27:19.340Z,8.7
2015-11-20T09:28:19.296Z,8.7
2015-11-20T09:29:19.236Z,8.8
2015-11-20T09:30:19.177Z,8.8
2015-11-20T09:31:19.132Z,8.7
2015-11-20T09:32:19.088Z,8.7
2015-11-20T09:33:19.028Z,8.6
2015-11-20T09:34:18.969Z,8.6
2015-11-20T09:35:18.909Z,8.6
2015-11-20T09:36:18.864Z,8.7
2015-11-20T09:37:18.805Z,8.7
2015-11-20T09:38:18.745Z,8.6
2015-11-20T09:39:18.701Z,8.6
2015-11-20T09:40:18.642Z,8.5
2015-11-20T09:41:18.597Z,8.5
2015-11-20T09:42:18.538Z,8.6
2015-11-20T09:43:18.478Z,8.5
2015-11-20T09:44:18.434Z,8.4
2015-11-20T09:45:18.374Z,8.4
2015-11-20T09:46:18.314Z,8.3
2015-11-20T09:47:18.270Z,8.3
2015-11-20T09:48:18.211Z,8.3
2015-11-20T09:49:18.151Z,8.4
2015-11-20T09:50:18.106Z,8.4
2015-11-20T09:51:18.046Z,8.5
2015-11-20T09:52:18.002Z,8.4
2015-11-20T09:53:17.943Z,8.4
2015-11-20T09:54:17.883Z,8.5
2015-11-20T09:55:17.824Z,8.4
2015-11-20T09:56:17.780Z,8.4
2015-11-20T09:57:17.719Z,8.4
2015-11-20T09:58:17.657Z,8.4
2015-11-20T09:59:17.613Z,8.4
2015-11-20T10:00:17.552Z,8.5
2015-11-20T10:01:17.493Z,8.5
2015-11-20T10:02:17.465Z,8.5
2015-11-20T10:03:17.390Z,8.5
2015-11-20T10:04:17.360Z,8.5
2015-11-20T10:05:17.285Z,8.5
2015-11-20T10:06:17.226Z,8.5
2015-11-20T10:07:17.182Z,8.4
2015-11-20T10:08:17.121Z,8.4
2015-11-20T10:09:17.077Z,8.4
2015-11-20T10:10:17.018Z,8.4
2015-11-20T10:11:16.957Z,8.4
2015-11-20T10:12:16.914Z,8.5
2015-11-20T10:13:16.854Z,8.5
2015-11-20T10:14:16.794Z,8.5
2015-11-20T10:15:16.734Z,8.5
2015-11-20T10:16:16.690Z,8.5
2015-11-20T10:17:16.631Z,8.5
2015-11-20T10:18:16.571Z,8.5
2015-11-20T10:19:16.511Z,8.5
2015-11-20T10:20:16.467Z,8.5
2015-11-20T10:21:16.422Z,8.7
2015-11-20T10:22:16.363Z,8.8
2015-11-20T10:23:16.303Z,9
2015-11-20T10:24:16.243Z,9.1
2015-11-20T10:25:16.199Z,9.2
2015-11-20T10:26:16.140Z,9.2
2015-11-20T10:27:16.080Z,9.2
2015-11-20T10:28:16.036Z,9.1
2015-11-20T10:29:15.976Z,9.2
2015-11-20T10:30:15.916Z,9.1
2015-11-20T10:31:15.872Z,8.9
2015-11-20T10:32:15.812Z,8.9
2015-11-20T10:33:15.752Z,8.9
2015-11-20T10:34:15.708Z,9
2015-11-20T10:35:15.648Z,9.1
2015-11-20T10:36:15.589Z,9.2
2015-11-20T10:37:15.560Z,9.2
2015-11-20T10:38:15.485Z,9.2
2015-11-20T10:39:15.441Z,9.2
2015-11-20T10:40:15.381Z,9.2
2015-11-20T10:41:15.322Z,9.2
2015-11-20T10:42:15.277Z,9.1
2015-11-20T10:43:15.216Z,9.1
2015-11-20T10:44:15.173Z,9.1
2015-11-20T10:45:15.114Z,9.2
2015-11-20T10:46:15.069Z,9.2
2015-11-20T10:47:15.010Z,9.1
2015-11-20T10:48:14.965Z,9.1
2015-11-20T10:49:14.905Z,9.1
2015-11-20T10:50:14.846Z,9.2
2015-11-20T10:51:14.801Z,9.1
2015-11-20T10:52:14.741Z,9.1
2015-11-20T10:53:14.682Z,9.1
2015-11-20T10:54:14.637Z,9.1
2015-11-20T10:55:14.578Z,9.1
2015-11-20T10:56:14.534Z,9
2015-11-20T10:57:14.474Z,9
2015-11-20T10:58:14.415Z,9.1
2015-11-20T10:59:14.371Z,9.1
2015-11-20T11:00:14.310Z,9.1
2015-11-20T11:01:14.298Z,9.1
2015-11-20T11:02:14.204Z,9.1
2015-11-20T11:03:14.160Z,9
2015-11-20T11:04:14.115Z,8.9
2015-11-20T11:05:14.056Z,8.9
2015-11-20T11:06:14.090Z,9
2015-11-20T11:07:13.936Z,9
2015-11-20T11:08:13.892Z,8.9
2015-11-20T11:09:13.832Z,8.8
2015-11-20T11:10:13.773Z,8.8
2015-11-20T11:11:13.712Z,8.8
2015-11-20T11:12:13.668Z,8.8
2015-11-20T11:13:13.609Z,8.8
2015-11-20T11:14:13.548Z,8.9
2015-11-20T11:15:13.504Z,8.9
2015-11-20T11:16:13.445Z,8.9
2015-11-20T11:17:13.384Z,8.8
2015-11-20T11:18:13.325Z,8.9
2015-11-20T11:19:13.286Z,8.9
2015-11-20T11:20:13.226Z,8.9
2015-11-20T11:21:13.167Z,8.9
2015-11-20T11:22:13.107Z,8.9
2015-11-20T11:23:13.063Z,8.9
2015-11-20T11:24:13.003Z,8.9
2015-11-20T11:25:12.990Z,9
2015-11-20T11:26:12.930Z,9
2015-11-20T11:27:12.839Z,9
2015-11-20T11:28:12.794Z,9
2015-11-20T11:29:12.736Z,9
2015-11-20T11:30:12.675Z,9.1
2015-11-20T11:31:12.631Z,9.1
2015-11-20T11:32:12.572Z,9
2015-11-20T11:33:12.527Z,9.1
2015-11-20T11:34:12.468Z,9.1
2015-11-20T11:35:12.424Z,9.2
2015-11-20T11:36:12.379Z,9.1
2015-11-20T11:37:12.320Z,9.1
2015-11-20T11:38:12.244Z,9.1
2015-11-20T11:39:12.200Z,9.1
2015-11-20T11:40:12.141Z,9.2
2015-11-20T11:41:12.081Z,9.2
2015-11-20T11:42:12.036Z,9.3
2015-11-20T11:43:11.993Z,9.3
2015-11-20T11:44:11.949Z,9.3
2015-11-20T11:45:11.874Z,9.2
2015-11-20T11:46:11.813Z,9.2
2015-11-20T11:47:11.769Z,9.3
2015-11-20T11:48:11.710Z,9.4
2015-11-20T11:49:11.665Z,9.4
2015-11-20T11:50:11.621Z,9.5
2015-11-20T11:51:11.561Z,9.5
2015-11-20T11:52:11.501Z,9.5
2015-11-20T11:53:11.458Z,9.4
2015-11-20T11:54:11.398Z,9.4
2015-11-20T11:55:11.353Z,9.3
2015-11-20T11:56:11.310Z,9.3
2015-11-20T11:57:11.235Z,9.2
2015-11-20T11:58:11.190Z,9.2
2015-11-20T11:59:11.155Z,9.3
2015-11-20T12:00:11.080Z,9.3
2015-11-20T12:01:11.020Z,9.2
2015-11-20T12:02:10.960Z,9.2
2015-11-20T12:03:10.913Z,9.2
2015-11-20T12:04:10.839Z,9.2
2015-11-20T12:05:10.794Z,9.1
2015-11-20T12:06:10.733Z,9.1
2015-11-20T12:07:10.675Z,9.1
2015-11-20T12:08:10.630Z,9.2
2015-11-20T12:09:10.570Z,9.2
2015-11-20T12:10:10.542Z,9.2
2015-11-20T12:11:10.467Z,9.2
2015-11-20T12:12:10.407Z,9.1
2015-11-20T12:13:10.363Z,9.1
2015-11-20T12:14:10.303Z,9.1
2015-11-20T12:15:10.243Z,9.1
2015-11-20T12:16:10.199Z,9.1
2015-11-20T12:17:10.139Z,9
2015-11-20T12:18:10.079Z,9.1
2015-11-20T12:19:10.035Z,9
2015-11-20T12:20:09.991Z,9
2015-11-20T12:21:09.930Z,9
2015-11-20T12:22:09.871Z,9
2015-11-20T12:23:09.812Z,9
2015-11-20T12:24:09.752Z,9
2015-11-20T12:25:09.707Z,9
2015-11-20T12:26:09.648Z,9.1
2015-11-20T12:27:09.588Z,9
2015-11-20T12:28:09.544Z,9.1
2015-11-20T12:29:09.485Z,9
2015-11-20T12:30:09.424Z,9
2015-11-20T12:31:09.396Z,9
2015-11-20T12:32:09.321Z,9
2015-11-20T12:33:09.260Z,9
2015-11-20T12:34:09.201Z,8.9
2015-11-20T12:35:09.173Z,8.8
2015-11-20T12:36:09.096Z,8.7
2015-11-20T12:37:09.037Z,8.7
2015-11-20T12:38:08.977Z,8.4
2015-11-20T12:39:08.934Z,8.3
2015-11-20T12:40:08.874Z,8.2
2015-11-20T12:41:08.815Z,8.1
2015-11-20T12:42:08.754Z,8.1
2015-11-20T12:43:08.709Z,8.1
2015-11-20T12:44:08.698Z,8.1
2015-11-20T12:45:08.591Z,8
2015-11-20T12:46:08.546Z,7.9
2015-11-20T12:47:08.487Z,7.8
2015-11-20T12:48:08.427Z,7.8
2015-11-20T12:49:08.367Z,7.8
2015-11-20T12:50:08.323Z,7.9
2015-11-20T12:51:08.263Z,7.9
2015-11-20T12:52:08.204Z,8
2015-11-20T12:53:08.143Z,8.1
2015-11-20T12:54:08.100Z,8.2
2015-11-20T12:55:08.039Z,8.2
2015-11-20T12:56:07.980Z,8.3
2015-11-20T12:57:07.920Z,8.3
2015-11-20T12:58:07.876Z,8.3
2015-11-20T12:59:07.816Z,8.3
2015-11-20T13:00:07.757Z,8.2
2015-11-20T13:01:07.697Z,8.2
2015-11-20T13:02:07.653Z,8.2
2015-11-20T13:03:07.593Z,8.2
2015-11-20T13:04:07.531Z,8.2
2015-11-20T13:05:07.502Z,8.2
2015-11-20T13:06:07.426Z,8.2
2015-11-20T13:07:07.366Z,8.3
2015-11-20T13:08:07.307Z,8.1
2015-11-20T13:09:07.263Z,8.1
2015-11-20T13:10:07.203Z,8
2015-11-20T13:11:07.143Z,8
2015-11-20T13:12:07.114Z,7.9
2015-11-20T13:13:07.024Z,8
2015-11-20T13:14:06.980Z,7.9
2015-11-20T13:15:06.919Z,7.9
2015-11-20T13:16:06.860Z,7.9
2015-11-20T13:17:06.800Z,7.8
2015-11-20T13:18:06.756Z,7.8
2015-11-20T13:19:06.696Z,7.9
2015-11-20T13:20:06.636Z,7.8
2015-11-20T13:21:06.592Z,7.8
2015-11-20T13:22:06.532Z,7.9
2015-11-20T13:23:06.472Z,7.8
2015-11-20T13:24:06.413Z,7.8
2015-11-20T13:25:06.369Z,7.9
2015-11-20T13:26:06.310Z,7.9
2015-11-20T13:27:06.249Z,7.7
2015-11-20T13:28:06.205Z,7.7
2015-11-20T13:29:06.130Z,7.7
2015-11-20T13:30:06.086Z,7.7
2015-11-20T13:31:06.026Z,7.7
2015-11-20T13:32:05.966Z,7.6
2015-11-20T13:33:05.907Z,7.6
2015-11-20T13:34:05.847Z,7.7
2015-11-20T13:35:05.818Z,7.7
2015-11-20T13:36:05.743Z,7.8
2015-11-20T13:37:05.683Z,7.7
2015-11-20T13:38:05.639Z,7.7
2015-11-20T13:39:05.579Z,7.7
2015-11-20T13:40:05.519Z,7.7
2015-11-20T13:41:05.460Z,7.6
2015-11-20T13:42:05.416Z,7.7
2015-11-20T13:43:05.356Z,7.6
2015-11-20T13:44:05.326Z,7.6
2015-11-20T13:45:05.237Z,7.6
2015-11-20T13:46:05.177Z,7.5
2015-11-20T13:47:05.132Z,7.5
2015-11-20T13:48:05.073Z,7.4
2015-11-20T13:49:05.006Z,7.5
2015-11-20T13:50:04.950Z,7.4
2015-11-20T13:51:04.879Z,7.5
2015-11-20T13:52:04.806Z,7.5
2015-11-20T13:53:04.735Z,7.6
2015-11-20T13:54:04.667Z,7.6
2015-11-20T13:55:04.619Z,7.6